sensor_id;sensor_type;location;lat;lon;timestamp;P1;durP1;ratioP1;P2;durP2;ratioP2
16979;SDS011;42288;52.182;21.156;2024-03-23T00:52:15;36.13;;;17.90;;
16979;SDS011;42288;52.182;21.156;2024-03-23T00:54:41;37.67;;;17.43;;
16979;SDS011;42288;52.182;21.156;2024-03-23T00:57:07;35.97;;;17.27;;
16979;SDS011;42288;52.182;21.156;2024-03-23T00:59:32;30.60;;;16.23;;
16979;SDS011;42288;52.182;21.156;2024-03-23T01:01:58;29.30;;;14.70;;
16979;SDS011;42288;52.182;21.156;2024-03-23T01:04:24;41.73;;;17.23;;
16979;SDS011;42288;52.182;21.156;2024-03-23T01:06:49;43.60;;;17.80;;
16979;SDS011;42288;52.182;21.156;2024-03-23T01:09:15;42.97;;;17.93;;
16979;SDS011;42288;52.182;21.156;2024-03-23T01:11:40;39.20;;;16.97;;
16979;SDS011;42288;52.182;21.156;2024-03-23T01:14:06;36.17;;;17.50;;
16979;SDS011;42288;52.182;21.156;2024-03-23T01:16:32;37.67;;;18.70;;
16979;SDS011;42288;52.182;21.156;2024-03-23T01:18:57;45.67;;;19.83;;
16979;SDS011;42288;52.182;21.156;2024-03-23T01:21:23;38.27;;;17.63;;
16979;SDS011;42288;52.182;21.156;2024-03-23T01:23:49;41.53;;;17.80;;
16979;SDS011;42288;52.182;21.156;2024-03-23T01:26:15;41.00;;;18.63;;
16979;SDS011;42288;52.182;21.156;2024-03-23T01:28:40;55.20;;;20.43;;
16979;SDS011;42288;52.182;21.156;2024-03-23T01:31:06;53.47;;;21.33;;
16979;SDS011;42288;52.182;21.156;2024-03-23T01:33:31;40.37;;;17.90;;
16979;SDS011;42288;52.182;21.156;2024-03-23T01:35:57;44.30;;;18.53;;
16979;SDS011;42288;52.182;21.156;2024-03-23T01:38:23;58.73;;;22.93;;
16979;SDS011;42288;52.182;21.156;2024-03-23T01:40:48;56.70;;;23.23;;
16979;SDS011;42288;52.182;21.156;2024-03-23T01:43:14;50.43;;;18.83;;
16979;SDS011;42288;52.182;21.156;2024-03-23T01:45:40;42.37;;;19.37;;
16979;SDS011;42288;52.182;21.156;2024-03-23T01:48:05;44.03;;;20.27;;
16979;SDS011;42288;52.182;21.156;2024-03-23T01:50:31;60.20;;;22.57;;
16979;SDS011;42288;52.182;21.156;2024-03-23T01:52:59;42.97;;;17.90;;
16979;SDS011;42288;52.182;21.156;2024-03-23T01:55:27;51.17;;;23.23;;
16979;SDS011;42288;52.182;21.156;2024-03-23T01:57:53;59.03;;;24.10;;
16979;SDS011;42288;52.182;21.156;2024-03-23T02:00:22;51.73;;;21.43;;
16979;SDS011;42288;52.182;21.156;2024-03-23T02:02:48;49.13;;;20.93;;
16979;SDS011;42288;52.182;21.156;2024-03-23T02:05:14;53.13;;;21.63;;
16979;SDS011;42288;52.182;21.156;2024-03-23T02:07:40;50.73;;;22.53;;
16979;SDS011;42288;52.182;21.156;2024-03-23T02:10:07;56.13;;;22.87;;
16979;SDS011;42288;52.182;21.156;2024-03-23T02:12:34;45.13;;;19.73;;
16979;SDS011;42288;52.182;21.156;2024-03-23T02:15:00;40.50;;;18.97;;
16979;SDS011;42288;52.182;21.156;2024-03-23T02:17:26;45.67;;;20.03;;
16979;SDS011;42288;52.182;21.156;2024-03-23T02:19:52;48.33;;;20.77;;
16979;SDS011;42288;52.182;21.156;2024-03-23T02:22:18;37.93;;;17.47;;
16979;SDS011;42288;52.182;21.156;2024-03-23T02:24:44;59.47;;;24.27;;
16979;SDS011;42288;52.182;21.156;2024-03-23T02:27:09;56.90;;;23.37;;
16979;SDS011;42288;52.182;21.156;2024-03-23T02:29:36;44.37;;;20.53;;
16979;SDS011;42288;52.182;21.156;2024-03-23T02:32:02;56.67;;;24.10;;
16979;SDS011;42288;52.182;21.156;2024-03-23T02:34:28;42.23;;;20.17;;
16979;SDS011;42288;52.182;21.156;2024-03-23T02:36:53;48.47;;;21.20;;
16979;SDS011;42288;52.182;21.156;2024-03-23T02:39:19;43.83;;;20.47;;
16979;SDS011;42288;52.182;21.156;2024-03-23T02:41:44;43.60;;;20.40;;
16979;SDS011;42288;52.182;21.156;2024-03-23T02:44:10;56.73;;;22.70;;
16979;SDS011;42288;52.182;21.156;2024-03-23T02:46:37;54.67;;;21.60;;
16979;SDS011;42288;52.182;21.156;2024-03-23T02:49:03;51.93;;;22.83;;
16979;SDS011;42288;52.182;21.156;2024-03-23T02:51:29;34.53;;;17.33;;
16979;SDS011;42288;52.182;21.156;2024-03-23T02:53:55;42.70;;;19.97;;
16979;SDS011;42288;52.182;21.156;2024-03-23T02:56:21;58.17;;;20.70;;
16979;SDS011;42288;52.182;21.156;2024-03-23T02:58:47;49.87;;;23.10;;
16979;SDS011;42288;52.182;21.156;2024-03-23T03:01:12;51.97;;;20.87;;
16979;SDS011;42288;52.182;21.156;2024-03-23T03:03:38;54.17;;;23.83;;
16979;SDS011;42288;52.182;21.156;2024-03-23T03:06:03;39.40;;;18.43;;
16979;SDS011;42288;52.182;21.156;2024-03-23T03:08:29;49.13;;;20.70;;
16979;SDS011;42288;52.182;21.156;2024-03-23T03:10:55;46.40;;;20.13;;
16979;SDS011;42288;52.182;21.156;2024-03-23T03:13:21;41.63;;;20.10;;
16979;SDS011;42288;52.182;21.156;2024-03-23T03:15:46;49.57;;;21.57;;
16979;SDS011;42288;52.182;21.156;2024-03-23T03:18:12;44.43;;;19.67;;
16979;SDS011;42288;52.182;21.156;2024-03-23T03:20:38;49.00;;;20.33;;
16979;SDS011;42288;52.182;21.156;2024-03-23T03:23:05;47.90;;;21.50;;
16979;SDS011;42288;52.182;21.156;2024-03-23T03:25:30;44.43;;;19.40;;
16979;SDS011;42288;52.182;21.156;2024-03-23T03:27:56;54.47;;;23.07;;
16979;SDS011;42288;52.182;21.156;2024-03-23T03:30:21;49.83;;;22.07;;
16979;SDS011;42288;52.182;21.156;2024-03-23T03:32:47;39.37;;;20.17;;
16979;SDS011;42288;52.182;21.156;2024-03-23T03:35:14;53.43;;;24.67;;
16979;SDS011;42288;52.182;21.156;2024-03-23T03:37:41;47.30;;;22.37;;
16979;SDS011;42288;52.182;21.156;2024-03-23T03:40:06;40.63;;;19.30;;
16979;SDS011;42288;52.182;21.156;2024-03-23T03:42:34;50.07;;;22.40;;
16979;SDS011;42288;52.182;21.156;2024-03-23T03:44:59;54.30;;;24.17;;
16979;SDS011;42288;52.182;21.156;2024-03-23T03:47:25;65.57;;;27.63;;
16979;SDS011;42288;52.182;21.156;2024-03-23T03:49:51;53.77;;;21.93;;
16979;SDS011;42288;52.182;21.156;2024-03-23T03:52:16;64.03;;;24.73;;
16979;SDS011;42288;52.182;21.156;2024-03-23T03:54:42;53.37;;;23.03;;
16979;SDS011;42288;52.182;21.156;2024-03-23T03:57:07;41.80;;;20.03;;
16979;SDS011;42288;52.182;21.156;2024-03-23T03:59:33;50.77;;;21.33;;
16979;SDS011;42288;52.182;21.156;2024-03-23T04:01:59;44.97;;;21.23;;
16979;SDS011;42288;52.182;21.156;2024-03-23T04:04:24;48.20;;;22.27;;
16979;SDS011;42288;52.182;21.156;2024-03-23T04:06:50;50.07;;;21.57;;
16979;SDS011;42288;52.182;21.156;2024-03-23T04:09:24;53.40;;;21.87;;
16979;SDS011;42288;52.182;21.156;2024-03-23T04:11:50;48.27;;;21.77;;
16979;SDS011;42288;52.182;21.156;2024-03-23T04:14:15;44.07;;;19.17;;
16979;SDS011;42288;52.182;21.156;2024-03-23T04:16:42;58.37;;;24.07;;
16979;SDS011;42288;52.182;21.156;2024-03-23T04:19:08;42.17;;;20.30;;
16979;SDS011;42288;52.182;21.156;2024-03-23T04:21:34;58.27;;;25.70;;
16979;SDS011;42288;52.182;21.156;2024-03-23T04:24:00;41.27;;;19.27;;
16979;SDS011;42288;52.182;21.156;2024-03-23T04:26:26;59.50;;;25.20;;
16979;SDS011;42288;52.182;21.156;2024-03-23T04:28:53;58.20;;;23.10;;
16979;SDS011;42288;52.182;21.156;2024-03-23T04:31:18;49.43;;;20.90;;
16979;SDS011;42288;52.182;21.156;2024-03-23T04:33:44;43.70;;;19.00;;
16979;SDS011;42288;52.182;21.156;2024-03-23T04:36:10;40.03;;;19.13;;
16979;SDS011;42288;52.182;21.156;2024-03-23T04:38:35;48.70;;;21.40;;
16979;SDS011;42288;52.182;21.156;2024-03-23T04:41:02;38.20;;;18.57;;
16979;SDS011;42288;52.182;21.156;2024-03-23T04:43:28;60.03;;;24.50;;
16979;SDS011;42288;52.182;21.156;2024-03-23T04:45:54;40.93;;;19.43;;
16979;SDS011;42288;52.182;21.156;2024-03-23T04:48:20;48.60;;;22.07;;
16979;SDS011;42288;52.182;21.156;2024-03-23T04:50:47;53.60;;;23.63;;
16979;SDS011;42288;52.182;21.156;2024-03-23T04:53:14;44.43;;;20.90;;
16979;SDS011;42288;52.182;21.156;2024-03-23T04:55:41;41.07;;;19.67;;
16979;SDS011;42288;52.182;21.156;2024-03-23T04:58:07;79.27;;;27.93;;
16979;SDS011;42288;52.182;21.156;2024-03-23T05:00:32;59.63;;;26.40;;
16979;SDS011;42288;52.182;21.156;2024-03-23T05:03:01;38.47;;;20.00;;
16979;SDS011;42288;52.182;21.156;2024-03-23T05:05:29;54.90;;;22.87;;
16979;SDS011;42288;52.182;21.156;2024-03-23T05:07:55;46.07;;;23.73;;
16979;SDS011;42288;52.182;21.156;2024-03-23T05:10:21;45.93;;;21.10;;
16979;SDS011;42288;52.182;21.156;2024-03-23T05:12:47;42.60;;;22.03;;
16979;SDS011;42288;52.182;21.156;2024-03-23T05:15:16;43.27;;;19.17;;
16979;SDS011;42288;52.182;21.156;2024-03-23T05:17:42;50.13;;;21.47;;
16979;SDS011;42288;52.182;21.156;2024-03-23T05:20:08;51.23;;;23.17;;
16979;SDS011;42288;52.182;21.156;2024-03-23T05:22:40;41.53;;;21.43;;
16979;SDS011;42288;52.182;21.156;2024-03-23T05:25:06;44.57;;;21.70;;
16979;SDS011;42288;52.182;21.156;2024-03-23T05:27:33;47.07;;;21.70;;
16979;SDS011;42288;52.182;21.156;2024-03-23T05:30:01;44.80;;;22.43;;
16979;SDS011;42288;52.182;21.156;2024-03-23T05:32:28;43.43;;;19.10;;
16979;SDS011;42288;52.182;21.156;2024-03-23T05:34:55;50.13;;;22.03;;
16979;SDS011;42288;52.182;21.156;2024-03-23T05:37:24;51.37;;;25.00;;
16979;SDS011;42288;52.182;21.156;2024-03-23T05:39:50;42.23;;;20.37;;
16979;SDS011;42288;52.182;21.156;2024-03-23T05:42:16;48.83;;;22.87;;
16979;SDS011;42288;52.182;21.156;2024-03-23T05:44:45;42.00;;;20.40;;
16979;SDS011;42288;52.182;21.156;2024-03-23T05:47:11;45.70;;;21.73;;
16979;SDS011;42288;52.182;21.156;2024-03-23T05:49:41;35.93;;;19.07;;
16979;SDS011;42288;52.182;21.156;2024-03-23T05:52:10;41.23;;;20.20;;
16979;SDS011;42288;52.182;21.156;2024-03-23T05:54:36;45.60;;;20.67;;
16979;SDS011;42288;52.182;21.156;2024-03-23T05:57:02;52.30;;;21.77;;
16979;SDS011;42288;52.182;21.156;2024-03-23T05:59:28;43.80;;;20.83;;
16979;SDS011;42288;52.182;21.156;2024-03-23T06:01:54;45.93;;;20.67;;
16979;SDS011;42288;52.182;21.156;2024-03-23T06:04:20;57.07;;;24.33;;
16979;SDS011;42288;52.182;21.156;2024-03-23T06:06:49;47.13;;;22.03;;
16979;SDS011;42288;52.182;21.156;2024-03-23T06:09:15;38.90;;;18.90;;
16979;SDS011;42288;52.182;21.156;2024-03-23T06:11:40;45.60;;;21.87;;
16979;SDS011;42288;52.182;21.156;2024-03-23T06:14:06;47.17;;;21.60;;
16979;SDS011;42288;52.182;21.156;2024-03-23T06:16:31;46.10;;;21.20;;
16979;SDS011;42288;52.182;21.156;2024-03-23T06:18:57;50.83;;;23.60;;
16979;SDS011;42288;52.182;21.156;2024-03-23T06:21:23;54.93;;;24.00;;
16979;SDS011;42288;52.182;21.156;2024-03-23T06:23:51;46.07;;;21.57;;
16979;SDS011;42288;52.182;21.156;2024-03-23T06:26:18;39.67;;;20.83;;
16979;SDS011;42288;52.182;21.156;2024-03-23T06:28:44;45.33;;;21.47;;
16979;SDS011;42288;52.182;21.156;2024-03-23T06:31:09;47.63;;;21.03;;
16979;SDS011;42288;52.182;21.156;2024-03-23T06:33:35;44.87;;;21.27;;
16979;SDS011;42288;52.182;21.156;2024-03-23T06:36:01;52.03;;;22.50;;
16979;SDS011;42288;52.182;21.156;2024-03-23T06:38:28;41.80;;;20.17;;
16979;SDS011;42288;52.182;21.156;2024-03-23T06:40:53;39.47;;;18.40;;
16979;SDS011;42288;52.182;21.156;2024-03-23T06:43:19;45.23;;;22.00;;
16979;SDS011;42288;52.182;21.156;2024-03-23T06:45:51;53.30;;;23.00;;
16979;SDS011;42288;52.182;21.156;2024-03-23T06:48:20;51.70;;;20.60;;
16979;SDS011;42288;52.182;21.156;2024-03-23T06:50:46;45.53;;;21.40;;
16979;SDS011;42288;52.182;21.156;2024-03-23T06:53:13;40.83;;;21.47;;
16979;SDS011;42288;52.182;21.156;2024-03-23T06:55:39;42.07;;;20.33;;
16979;SDS011;42288;52.182;21.156;2024-03-23T06:58:05;43.17;;;20.00;;
16979;SDS011;42288;52.182;21.156;2024-03-23T07:00:31;36.43;;;17.47;;
16979;SDS011;42288;52.182;21.156;2024-03-23T07:02:58;36.83;;;19.37;;
16979;SDS011;42288;52.182;21.156;2024-03-23T07:05:24;46.30;;;19.90;;
16979;SDS011;42288;52.182;21.156;2024-03-23T07:07:49;46.77;;;20.13;;
16979;SDS011;42288;52.182;21.156;2024-03-23T07:10:15;52.40;;;23.87;;
16979;SDS011;42288;52.182;21.156;2024-03-23T07:12:41;59.93;;;25.23;;
16979;SDS011;42288;52.182;21.156;2024-03-23T07:15:06;45.73;;;22.17;;
16979;SDS011;42288;52.182;21.156;2024-03-23T07:17:33;47.47;;;20.73;;
16979;SDS011;42288;52.182;21.156;2024-03-23T07:20:00;50.87;;;22.37;;
16979;SDS011;42288;52.182;21.156;2024-03-23T07:22:28;49.20;;;20.93;;
16979;SDS011;42288;52.182;21.156;2024-03-23T07:24:59;48.93;;;22.13;;
16979;SDS011;42288;52.182;21.156;2024-03-23T07:27:26;44.73;;;21.20;;
16979;SDS011;42288;52.182;21.156;2024-03-23T07:29:51;42.50;;;21.07;;
16979;SDS011;42288;52.182;21.156;2024-03-23T07:32:17;39.63;;;19.10;;
16979;SDS011;42288;52.182;21.156;2024-03-23T07:34:43;51.57;;;22.43;;
16979;SDS011;42288;52.182;21.156;2024-03-23T07:37:09;52.03;;;22.57;;
16979;SDS011;42288;52.182;21.156;2024-03-23T07:39:35;43.53;;;21.93;;
16979;SDS011;42288;52.182;21.156;2024-03-23T07:42:01;46.53;;;20.80;;
16979;SDS011;42288;52.182;21.156;2024-03-23T07:44:26;52.83;;;22.90;;
16979;SDS011;42288;52.182;21.156;2024-03-23T07:46:52;49.57;;;22.13;;
16979;SDS011;42288;52.182;21.156;2024-03-23T07:49:18;60.37;;;24.90;;
16979;SDS011;42288;52.182;21.156;2024-03-23T07:51:43;50.63;;;22.73;;
16979;SDS011;42288;52.182;21.156;2024-03-23T07:54:09;52.63;;;23.03;;
16979;SDS011;42288;52.182;21.156;2024-03-23T07:56:35;43.53;;;20.03;;
16979;SDS011;42288;52.182;21.156;2024-03-23T07:59:01;40.77;;;19.33;;
16979;SDS011;42288;52.182;21.156;2024-03-23T08:01:28;36.20;;;17.63;;
16979;SDS011;42288;52.182;21.156;2024-03-23T08:03:54;46.57;;;21.47;;
16979;SDS011;42288;52.182;21.156;2024-03-23T08:06:19;42.37;;;19.07;;
16979;SDS011;42288;52.182;21.156;2024-03-23T08:08:48;38.20;;;19.33;;
16979;SDS011;42288;52.182;21.156;2024-03-23T08:11:24;39.70;;;19.47;;
16979;SDS011;42288;52.182;21.156;2024-03-23T08:13:53;43.77;;;19.43;;
16979;SDS011;42288;52.182;21.156;2024-03-23T08:16:19;44.17;;;18.13;;
16979;SDS011;42288;52.182;21.156;2024-03-23T08:18:45;43.63;;;19.17;;
16979;SDS011;42288;52.182;21.156;2024-03-23T08:21:11;32.90;;;17.33;;
16979;SDS011;42288;52.182;21.156;2024-03-23T08:23:36;33.97;;;17.50;;
16979;SDS011;42288;52.182;21.156;2024-03-23T08:26:06;38.50;;;18.10;;
16979;SDS011;42288;52.182;21.156;2024-03-23T08:28:33;38.47;;;19.27;;
16979;SDS011;42288;52.182;21.156;2024-03-23T08:31:03;39.83;;;16.30;;
16979;SDS011;42288;52.182;21.156;2024-03-23T08:33:30;37.67;;;17.63;;
16979;SDS011;42288;52.182;21.156;2024-03-23T08:35:57;42.97;;;18.17;;
16979;SDS011;42288;52.182;21.156;2024-03-23T08:38:24;38.23;;;18.10;;
16979;SDS011;42288;52.182;21.156;2024-03-23T08:43:27;44.73;;;18.10;;
16979;SDS011;42288;52.182;21.156;2024-03-23T08:46:02;37.67;;;17.87;;
16979;SDS011;42288;52.182;21.156;2024-03-23T08:48:32;40.50;;;19.27;;
16979;SDS011;42288;52.182;21.156;2024-03-23T08:51:04;43.40;;;17.93;;
16979;SDS011;42288;52.182;21.156;2024-03-23T08:53:31;33.00;;;15.60;;
16979;SDS011;42288;52.182;21.156;2024-03-23T08:55:57;33.73;;;16.27;;
16979;SDS011;42288;52.182;21.156;2024-03-23T08:58:24;28.97;;;15.40;;
16979;SDS011;42288;52.182;21.156;2024-03-23T09:00:54;31.80;;;15.33;;
16979;SDS011;42288;52.182;21.156;2024-03-23T09:03:21;30.60;;;14.27;;
16979;SDS011;42288;52.182;21.156;2024-03-23T09:05:47;37.53;;;15.80;;
16979;SDS011;42288;52.182;21.156;2024-03-23T09:08:13;29.77;;;14.60;;
16979;SDS011;42288;52.182;21.156;2024-03-23T09:10:39;28.80;;;13.63;;
16979;SDS011;42288;52.182;21.156;2024-03-23T09:13:05;26.67;;;13.37;;
16979;SDS011;42288;52.182;21.156;2024-03-23T09:15:32;27.07;;;14.00;;
16979;SDS011;42288;52.182;21.156;2024-03-23T09:18:01;31.67;;;13.47;;
16979;SDS011;42288;52.182;21.156;2024-03-23T09:20:28;29.23;;;13.57;;
16979;SDS011;42288;52.182;21.156;2024-03-23T09:22:54;26.90;;;12.37;;
16979;SDS011;42288;52.182;21.156;2024-03-23T09:25:19;26.90;;;12.70;;
16979;SDS011;42288;52.182;21.156;2024-03-23T09:27:48;26.20;;;12.20;;
16979;SDS011;42288;52.182;21.156;2024-03-23T09:30:14;24.27;;;11.60;;
16979;SDS011;42288;52.182;21.156;2024-03-23T09:32:41;29.83;;;13.10;;
16979;SDS011;42288;52.182;21.156;2024-03-23T09:35:08;23.87;;;11.70;;
16979;SDS011;42288;52.182;21.156;2024-03-23T09:37:33;22.10;;;11.13;;
16979;SDS011;42288;52.182;21.156;2024-03-23T09:39:59;24.20;;;11.33;;
16979;SDS011;42288;52.182;21.156;2024-03-23T09:42:24;26.57;;;13.17;;
16979;SDS011;42288;52.182;21.156;2024-03-23T09:44:50;28.53;;;13.30;;
16979;SDS011;42288;52.182;21.156;2024-03-23T09:47:16;24.40;;;12.00;;
16979;SDS011;42288;52.182;21.156;2024-03-23T09:49:42;28.77;;;13.73;;
16979;SDS011;42288;52.182;21.156;2024-03-23T09:52:08;18.97;;;11.13;;
16979;SDS011;42288;52.182;21.156;2024-03-23T09:54:34;22.33;;;10.63;;
16979;SDS011;42288;52.182;21.156;2024-03-23T09:57:00;17.23;;;9.63;;
16979;SDS011;42288;52.182;21.156;2024-03-23T09:59:26;20.67;;;10.10;;
16979;SDS011;42288;52.182;21.156;2024-03-23T10:01:52;19.17;;;9.70;;
16979;SDS011;42288;52.182;21.156;2024-03-23T10:04:35;18.47;;;8.73;;
16979;SDS011;42288;52.182;21.156;2024-03-23T10:07:14;21.00;;;9.30;;
16979;SDS011;42288;52.182;21.156;2024-03-23T10:09:44;19.13;;;9.60;;
16979;SDS011;42288;52.182;21.156;2024-03-23T10:12:10;23.80;;;8.90;;
16979;SDS011;42288;52.182;21.156;2024-03-23T10:14:38;19.40;;;9.27;;
16979;SDS011;42288;52.182;21.156;2024-03-23T10:17:17;17.50;;;9.20;;
16979;SDS011;42288;52.182;21.156;2024-03-23T10:19:48;16.50;;;8.40;;
16979;SDS011;42288;52.182;21.156;2024-03-23T10:22:17;17.50;;;9.13;;
16979;SDS011;42288;52.182;21.156;2024-03-23T10:24:44;19.57;;;8.97;;
16979;SDS011;42288;52.182;21.156;2024-03-23T10:27:13;17.57;;;8.50;;
16979;SDS011;42288;52.182;21.156;2024-03-23T10:29:41;14.37;;;8.33;;
16979;SDS011;42288;52.182;21.156;2024-03-23T10:32:08;17.37;;;8.90;;
16979;SDS011;42288;52.182;21.156;2024-03-23T10:34:34;11.87;;;7.47;;
16979;SDS011;42288;52.182;21.156;2024-03-23T10:37:01;14.47;;;8.10;;
16979;SDS011;42288;52.182;21.156;2024-03-23T10:39:29;17.80;;;7.53;;
16979;SDS011;42288;52.182;21.156;2024-03-23T10:41:57;14.03;;;8.00;;
16979;SDS011;42288;52.182;21.156;2024-03-23T10:44:25;17.90;;;7.40;;
16979;SDS011;42288;52.182;21.156;2024-03-23T10:46:54;13.33;;;8.00;;
16979;SDS011;42288;52.182;21.156;2024-03-23T10:49:24;16.30;;;8.13;;
16979;SDS011;42288;52.182;21.156;2024-03-23T10:52:00;15.77;;;7.83;;
16979;SDS011;42288;52.182;21.156;2024-03-23T10:54:30;15.40;;;7.67;;
16979;SDS011;42288;52.182;21.156;2024-03-23T10:57:06;16.80;;;7.80;;
16979;SDS011;42288;52.182;21.156;2024-03-23T10:59:37;13.63;;;7.70;;
16979;SDS011;42288;52.182;21.156;2024-03-23T11:02:04;14.93;;;7.30;;
16979;SDS011;42288;52.182;21.156;2024-03-23T11:04:33;12.03;;;6.97;;
16979;SDS011;42288;52.182;21.156;2024-03-23T11:09:49;15.37;;;7.07;;
16979;SDS011;42288;52.182;21.156;2024-03-23T11:14:50;11.73;;;6.77;;
16979;SDS011;42288;52.182;21.156;2024-03-23T11:17:20;15.87;;;7.77;;
16979;SDS011;42288;52.182;21.156;2024-03-23T11:19:57;13.60;;;7.27;;
16979;SDS011;42288;52.182;21.156;2024-03-23T11:27:50;15.50;;;6.97;;
16979;SDS011;42288;52.182;21.156;2024-03-23T11:30:19;13.43;;;6.70;;
16979;SDS011;42288;52.182;21.156;2024-03-23T11:32:58;13.57;;;7.07;;
16979;SDS011;42288;52.182;21.156;2024-03-23T11:35:27;12.20;;;7.03;;
16979;SDS011;42288;52.182;21.156;2024-03-23T11:38:01;11.13;;;6.03;;
16979;SDS011;42288;52.182;21.156;2024-03-23T11:40:32;14.30;;;5.90;;
16979;SDS011;42288;52.182;21.156;2024-03-23T11:42:59;12.97;;;6.40;;
16979;SDS011;42288;52.182;21.156;2024-03-23T11:45:29;13.40;;;5.43;;
16979;SDS011;42288;52.182;21.156;2024-03-23T11:50:48;10.60;;;5.57;;
16979;SDS011;42288;52.182;21.156;2024-03-23T11:53:22;7.60;;;5.20;;
16979;SDS011;42288;52.182;21.156;2024-03-23T11:55:52;9.73;;;5.00;;
16979;SDS011;42288;52.182;21.156;2024-03-23T11:58:20;9.70;;;4.63;;
16979;SDS011;42288;52.182;21.156;2024-03-23T12:00:56;10.60;;;5.50;;
16979;SDS011;42288;52.182;21.156;2024-03-23T12:03:23;11.60;;;5.37;;
16979;SDS011;42288;52.182;21.156;2024-03-23T12:05:54;10.07;;;5.70;;
16979;SDS011;42288;52.182;21.156;2024-03-23T12:11:06;13.47;;;6.10;;
16979;SDS011;42288;52.182;21.156;2024-03-23T12:13:36;9.77;;;5.10;;
16979;SDS011;42288;52.182;21.156;2024-03-23T12:18:45;8.97;;;5.00;;
16979;SDS011;42288;52.182;21.156;2024-03-23T12:21:16;9.67;;;5.50;;
16979;SDS011;42288;52.182;21.156;2024-03-23T12:23:42;10.07;;;5.80;;
16979;SDS011;42288;52.182;21.156;2024-03-23T12:26:14;11.07;;;5.90;;
16979;SDS011;42288;52.182;21.156;2024-03-23T12:28:40;11.90;;;6.03;;
16979;SDS011;42288;52.182;21.156;2024-03-23T12:31:06;13.60;;;5.87;;
16979;SDS011;42288;52.182;21.156;2024-03-23T12:33:32;9.50;;;5.77;;
16979;SDS011;42288;52.182;21.156;2024-03-23T12:35:57;9.90;;;5.10;;
16979;SDS011;42288;52.182;21.156;2024-03-23T12:38:23;12.93;;;6.80;;
16979;SDS011;42288;52.182;21.156;2024-03-23T12:40:49;10.67;;;5.47;;
16979;SDS011;42288;52.182;21.156;2024-03-23T12:43:15;12.33;;;6.00;;
16979;SDS011;42288;52.182;21.156;2024-03-23T12:45:41;11.73;;;6.10;;
16979;SDS011;42288;52.182;21.156;2024-03-23T12:48:11;11.17;;;6.53;;
16979;SDS011;42288;52.182;21.156;2024-03-23T12:50:37;11.50;;;5.57;;
16979;SDS011;42288;52.182;21.156;2024-03-23T12:53:03;14.17;;;6.50;;
16979;SDS011;42288;52.182;21.156;2024-03-23T12:55:28;12.63;;;5.70;;
16979;SDS011;42288;52.182;21.156;2024-03-23T12:57:54;12.20;;;7.00;;
16979;SDS011;42288;52.182;21.156;2024-03-23T13:00:19;15.13;;;6.03;;
16979;SDS011;42288;52.182;21.156;2024-03-23T13:02:45;10.50;;;5.77;;
16979;SDS011;42288;52.182;21.156;2024-03-23T13:05:11;11.40;;;4.70;;
16979;SDS011;42288;52.182;21.156;2024-03-23T13:07:36;8.37;;;4.90;;
16979;SDS011;42288;52.182;21.156;2024-03-23T13:10:04;11.97;;;5.40;;
16979;SDS011;42288;52.182;21.156;2024-03-23T13:12:30;8.07;;;5.20;;
16979;SDS011;42288;52.182;21.156;2024-03-23T13:14:57;10.33;;;4.47;;
16979;SDS011;42288;52.182;21.156;2024-03-23T13:17:24;9.57;;;5.17;;
16979;SDS011;42288;52.182;21.156;2024-03-23T13:19:49;9.30;;;4.50;;
16979;SDS011;42288;52.182;21.156;2024-03-23T13:22:15;9.20;;;4.97;;
16979;SDS011;42288;52.182;21.156;2024-03-23T13:24:41;10.67;;;5.57;;
16979;SDS011;42288;52.182;21.156;2024-03-23T13:27:07;7.43;;;4.23;;
16979;SDS011;42288;52.182;21.156;2024-03-23T13:29:33;8.57;;;5.10;;
16979;SDS011;42288;52.182;21.156;2024-03-23T13:32:08;8.33;;;4.30;;
16979;SDS011;42288;52.182;21.156;2024-03-23T13:34:33;10.60;;;5.27;;
16979;SDS011;42288;52.182;21.156;2024-03-23T13:37:00;9.23;;;4.43;;
16979;SDS011;42288;52.182;21.156;2024-03-23T13:39:25;10.87;;;5.27;;
16979;SDS011;42288;52.182;21.156;2024-03-23T13:42:11;9.60;;;5.30;;
16979;SDS011;42288;52.182;21.156;2024-03-23T13:44:37;6.80;;;4.90;;
16979;SDS011;42288;52.182;21.156;2024-03-23T13:47:03;8.83;;;4.20;;
16979;SDS011;42288;52.182;21.156;2024-03-23T13:49:30;7.30;;;5.03;;
16979;SDS011;42288;52.182;21.156;2024-03-23T13:51:57;10.60;;;4.67;;
16979;SDS011;42288;52.182;21.156;2024-03-23T13:54:23;7.17;;;4.60;;
16979;SDS011;42288;52.182;21.156;2024-03-23T13:56:50;8.33;;;4.20;;
16979;SDS011;42288;52.182;21.156;2024-03-23T13:59:16;5.40;;;3.87;;
16979;SDS011;42288;52.182;21.156;2024-03-23T14:01:42;7.73;;;4.20;;
16979;SDS011;42288;52.182;21.156;2024-03-23T14:04:10;8.53;;;4.27;;
16979;SDS011;42288;52.182;21.156;2024-03-23T14:06:36;6.33;;;3.97;;
16979;SDS011;42288;52.182;21.156;2024-03-23T14:09:02;9.23;;;4.60;;
16979;SDS011;42288;52.182;21.156;2024-03-23T14:11:28;7.87;;;4.20;;
16979;SDS011;42288;52.182;21.156;2024-03-23T14:13:54;8.30;;;4.00;;
16979;SDS011;42288;52.182;21.156;2024-03-23T14:16:20;10.23;;;3.77;;
16979;SDS011;42288;52.182;21.156;2024-03-23T14:18:46;7.13;;;3.33;;
16979;SDS011;42288;52.182;21.156;2024-03-23T14:21:14;16.73;;;6.27;;
16979;SDS011;42288;52.182;21.156;2024-03-23T14:23:40;9.53;;;4.30;;
16979;SDS011;42288;52.182;21.156;2024-03-23T14:26:08;7.77;;;4.40;;
16979;SDS011;42288;52.182;21.156;2024-03-23T14:28:34;9.53;;;5.10;;
16979;SDS011;42288;52.182;21.156;2024-03-23T14:31:00;6.47;;;4.10;;
16979;SDS011;42288;52.182;21.156;2024-03-23T14:33:26;7.17;;;4.13;;
16979;SDS011;42288;52.182;21.156;2024-03-23T14:35:51;7.70;;;3.80;;
16979;SDS011;42288;52.182;21.156;2024-03-23T14:38:18;9.83;;;4.07;;
16979;SDS011;42288;52.182;21.156;2024-03-23T14:40:45;7.13;;;3.63;;
16979;SDS011;42288;52.182;21.156;2024-03-23T14:43:11;5.70;;;3.97;;
16979;SDS011;42288;52.182;21.156;2024-03-23T14:45:37;11.70;;;5.27;;
16979;SDS011;42288;52.182;21.156;2024-03-23T14:48:02;9.07;;;4.17;;
16979;SDS011;42288;52.182;21.156;2024-03-23T14:50:28;8.30;;;3.90;;
16979;SDS011;42288;52.182;21.156;2024-03-23T14:52:54;12.40;;;5.73;;
16979;SDS011;42288;52.182;21.156;2024-03-23T14:55:19;8.33;;;4.80;;
16979;SDS011;42288;52.182;21.156;2024-03-23T14:57:45;11.17;;;4.80;;
16979;SDS011;42288;52.182;21.156;2024-03-23T15:00:10;11.50;;;5.87;;
16979;SDS011;42288;52.182;21.156;2024-03-23T15:02:37;13.10;;;5.40;;
16979;SDS011;42288;52.182;21.156;2024-03-23T15:05:03;8.30;;;5.93;;
16979;SDS011;42288;52.182;21.156;2024-03-23T15:07:29;11.23;;;5.47;;
16979;SDS011;42288;52.182;21.156;2024-03-23T15:09:55;15.07;;;5.40;;
16979;SDS011;42288;52.182;21.156;2024-03-23T15:12:21;9.43;;;5.07;;
16979;SDS011;42288;52.182;21.156;2024-03-23T15:14:47;8.80;;;5.17;;
16979;SDS011;42288;52.182;21.156;2024-03-23T15:17:13;9.13;;;5.83;;
16979;SDS011;42288;52.182;21.156;2024-03-23T15:19:38;12.47;;;6.33;;
16979;SDS011;42288;52.182;21.156;2024-03-23T15:22:05;12.17;;;6.03;;
16979;SDS011;42288;52.182;21.156;2024-03-23T15:24:30;12.10;;;6.70;;
16979;SDS011;42288;52.182;21.156;2024-03-23T15:26:56;15.47;;;7.67;;